Time;durP1;ratioP1;P1;durP2;ratioP2;P2;SDS_P1;SDS_P2;PMS_P1;PMS_P2;Temp;Humidity;BMP_temperature;BMP_pressure;BME280_temperature;BME280_humidity;BME280_pressure;Samples;Min_cycle;Max_cycle;Signal;HPM_P1;HPM_P2
2022/12/07 00:01:31;;;;;;;;;;;;;;;8.35;49.69;99488.25;4341467;32;34228;-70
2022/12/07 00:04:05;;;;;;;;;;;;;;;8.53;49.12;99488.78;4353782;32;35070;-69
2022/12/07 00:06:36;;;;;;;;;;;;;;;8.55;48.92;99488.69;4358822;32;34234;-72
2022/12/07 00:09:05;;;;;;;;;;;;;;;8.54;49.04;99487.84;4355464;32;35407;-69
2022/12/07 00:11:32;;;;;;;;;;;;;;;8.53;48.80;99486.12;4357070;32;33338;-70
2022/12/07 00:14:00;;;;;;;;;;;;;;;8.50;48.74;99480.16;4357081;32;33906;-70
2022/12/07 00:16:28;;;;;;;;;;;;;;;8.56;48.54;99480.56;4354192;32;34189;-72
2022/12/07 00:18:56;;;;;;;;;;;;;;;8.40;48.64;99471.94;4353825;32;32798;-70
2022/12/07 00:21:43;;;;;;;;;;;;;;;8.38;48.89;99463.22;4353012;32;34884;-71
2022/12/07 00:27:56;;;;;;;;;;;;;;;8.05;48.82;99466.38;4282304;33;32730;-71
2022/12/07 00:30:24;;;;;;;;;;;;;;;7.68;49.97;99467.06;4283774;33;34028;-71
2022/12/07 00:32:51;;;;;;;;;;;;;;;7.61;50.67;99470.25;4283881;33;31666;-71
2022/12/07 00:35:18;;;;;;;;;;;;;;;7.69;50.85;99466.09;4282452;33;33791;-70
2022/12/07 00:37:45;;;;;;;;;;;;;;;7.47;51.82;99468.50;4286469;33;35628;-71
2022/12/07 00:40:13;;;;;;;;;;;;;;;7.49;51.65;99466.59;4284512;33;35343;-71
2022/12/07 00:42:40;;;;;;;;;;;;;;;7.69;51.47;99467.91;4292007;33;33349;-71
2022/12/07 00:45:08;;;;;;;;;;;;;;;7.71;51.39;99458.03;4279273;33;34027;-73
2022/12/07 00:47:35;;;;;;;;;;;;;;;8.03;50.02;99449.66;4281337;33;33673;-71
2022/12/07 00:50:02;;;;;;;;;;;;;;;7.83;49.88;99466.97;4282324;33;34253;-70
2022/12/07 00:52:30;;;;;;;;;;;;;;;7.49;50.78;99463.09;4281732;33;32041;-70
2022/12/07 00:54:57;;;;;;;;;;;;;;;7.28;51.41;99468.00;4288765;33;33969;-70
2022/12/07 00:57:24;;;;;;;;;;;;;;;7.32;51.33;99466.84;4303086;33;34336;-72
2022/12/07 00:59:55;;;;;;;;;;;;;;;7.21;52.04;99457.75;4295937;33;33721;-71
2022/12/07 01:02:22;;;;;;;;;;;;;;;7.60;50.97;99468.53;4340786;32;32184;-70
2022/12/07 01:04:49;;;;;;;;;;;;;;;7.37;51.66;99465.59;4353801;32;34117;-72
2022/12/07 01:07:16;;;;;;;;;;;;;;;7.54;51.19;99452.97;4358646;32;32134;-72
2022/12/07 01:09:44;;;;;;;;;;;;;;;7.66;50.81;99447.66;4355829;32;35089;-73
2022/12/07 01:12:11;;;;;;;;;;;;;;;7.49;51.32;99441.78;4357863;32;32103;-71
2022/12/07 01:14:38;;;;;;;;;;;;;;;7.65;51.11;99448.62;4355343;32;33745;-70
2022/12/07 01:17:06;;;;;;;;;;;;;;;7.65;50.95;99459.28;4356889;32;34320;-71
2022/12/07 01:19:33;;;;;;;;;;;;;;;7.85;50.69;99447.28;4357469;32;34369;-73
2022/12/07 01:22:00;;;;;;;;;;;;;;;7.86;50.69;99453.44;4358095;32;33400;-74
2022/12/07 01:24:27;;;;;;;;;;;;;;;7.69;50.91;99450.13;4355026;32;35635;-72
2022/12/07 01:26:55;;;;;;;;;;;;;;;7.98;50.03;99447.28;4351444;32;34258;-68
2022/12/07 01:29:22;;;;;;;;;;;;;;;8.05;49.56;99447.72;4357566;32;34023;-67
2022/12/07 01:31:50;;;;;;;;;;;;;;;7.82;49.94;99446.63;4353844;32;33336;-66
2022/12/07 01:34:17;;;;;;;;;;;;;;;7.36;52.03;99449.72;4354941;32;34280;-68
2022/12/07 01:36:44;;;;;;;;;;;;;;;7.36;51.89;99452.37;4356463;32;33874;-69
2022/12/07 01:39:12;;;;;;;;;;;;;;;7.20;51.92;99449.88;4357138;32;34047;-69
2022/12/07 01:41:40;;;;;;;;;;;;;;;7.27;52.25;99451.19;4356318;32;33068;-71
2022/12/07 01:44:23;;;;;;;;;;;;;;;7.47;51.40;99449.84;4351428;32;34082;-69
2022/12/07 01:46:55;;;;;;;;;;;;;;;7.34;51.79;99452.47;4354632;32;34428;-69
2022/12/07 01:49:41;;;;;;;;;;;;;;;7.64;50.78;99446.94;4356305;32;33650;-69
2022/12/07 01:52:08;;;;;;;;;;;;;;;7.56;51.09;99446.56;4356980;32;33210;-70
2022/12/07 01:54:36;;;;;;;;;;;;;;;7.39;51.78;99438.88;4355177;32;34666;-70
2022/12/07 01:57:03;;;;;;;;;;;;;;;7.60;51.01;99431.25;4358599;32;34323;-68
2022/12/07 01:59:30;;;;;;;;;;;;;;;7.73;51.00;99428.59;4347411;32;35790;-69
2022/12/07 02:01:58;;;;;;;;;;;;;;;7.60;51.39;99428.56;4357734;32;33196;-69
2022/12/07 02:04:25;;;;;;;;;;;;;;;7.72;51.46;99427.75;4342213;32;32741;-70
2022/12/07 02:06:53;;;;;;;;;;;;;;;7.86;51.53;99429.47;4352308;32;34426;-69
2022/12/07 02:09:20;;;;;;;;;;;;;;;7.97;51.15;99418.94;4360521;32;34894;-70
2022/12/07 02:11:47;;;;;;;;;;;;;;;7.95;51.54;99426.16;4359842;32;33455;-69
2022/12/07 02:14:15;;;;;;;;;;;;;;;8.01;51.16;99424.91;4355497;32;32887;-69
2022/12/07 02:17:00;;;;;;;;;;;;;;;7.96;51.47;99429.69;4359852;32;34103;-70
2022/12/07 02:19:28;;;;;;;;;;;;;;;8.15;51.09;99425.66;4347088;32;33766;-70
2022/12/07 02:22:08;;;;;;;;;;;;;;;8.14;51.35;99431.09;4357651;32;32828;-70
2022/12/07 02:24:36;;;;;;;;;;;;;;;8.07;51.76;99427.16;4344856;32;34018;-70
2022/12/07 02:27:22;;;;;;;;;;;;;;;8.09;51.66;99427.88;4358687;32;34409;-70
2022/12/07 02:29:58;;;;;;;;;;;;;;;8.24;50.71;99426.81;4360398;32;34265;-69
2022/12/07 02:32:42;;;;;;;;;;;;;;;8.19;51.23;99428.13;4359176;32;32892;-70
2022/12/07 02:35:20;;;;;;;;;;;;;;;8.36;50.63;99428.63;4356290;32;34445;-70
2022/12/07 02:37:47;;;;;;;;;;;;;;;8.36;50.71;99433.94;4354901;32;33969;-71
2022/12/07 02:40:20;;;;;;;;;;;;;;;8.25;51.31;99417.88;4356459;32;33806;-71
2022/12/07 02:42:48;;;;;;;;;;;;;;;8.46;50.45;99428.84;4350979;32;33329;-70
2022/12/07 02:45:17;;;;;;;;;;;;;;;8.40;50.84;99415.94;4348876;32;33895;-71
2022/12/07 02:47:44;;;;;;;;;;;;;;;8.49;50.58;99415.28;4341680;32;34301;-71
2022/12/07 02:50:12;;;;;;;;;;;;;;;8.53;50.74;99421.25;4342101;32;34865;-69
2022/12/07 02:52:40;;;;;;;;;;;;;;;8.58;50.55;99413.78;4351248;32;34387;-72
2022/12/07 02:55:07;;;;;;;;;;;;;;;8.53;50.97;99415.94;4353426;32;35160;-70
2022/12/07 02:57:37;;;;;;;;;;;;;;;8.57;50.77;99412.06;4346932;32;35351;-70
2022/12/07 03:00:06;;;;;;;;;;;;;;;8.66;50.76;99413.22;4354656;32;34144;-70
2022/12/07 03:02:34;;;;;;;;;;;;;;;8.73;50.56;99409.16;4354258;32;33861;-70
2022/12/07 03:05:16;;;;;;;;;;;;;;;8.71;50.70;99409.28;4358356;32;34190;-70
2022/12/07 03:07:51;;;;;;;;;;;;;;;8.77;50.64;99416.00;4355229;32;33742;-70
2022/12/07 03:10:28;;;;;;;;;;;;;;;8.79;50.19;99414.87;4342210;32;34766;-71
2022/12/07 03:12:56;;;;;;;;;;;;;;;8.76;50.64;99411.59;4347420;32;32875;-70
2022/12/07 03:15:27;;;;;;;;;;;;;;;8.63;51.09;99408.97;4358929;32;34034;-70
2022/12/07 03:17:54;;;;;;;;;;;;;;;8.59;51.11;99404.81;4345449;32;34048;-72
2022/12/07 03:20:22;;;;;;;;;;;;;;;8.70;50.89;99402.25;4340306;32;33678;-70
2022/12/07 03:22:49;;;;;;;;;;;;;;;8.76;51.05;99406.25;4360835;32;32247;-70
2022/12/07 03:25:17;;;;;;;;;;;;;;;8.82;51.09;99403.16;4345116;32;32848;-70
2022/12/07 03:27:46;;;;;;;;;;;;;;;8.92;50.82;99401.50;4346158;32;32843;-70
2022/12/07 03:30:15;;;;;;;;;;;;;;;8.92;50.78;99395.31;4343122;32;35272;-69
2022/12/07 03:32:45;;;;;;;;;;;;;;;8.76;51.25;99398.25;4359827;32;31670;-69
2022/12/07 03:35:24;;;;;;;;;;;;;;;8.91;51.08;99394.47;4354190;32;34138;-70
2022/12/07 03:37:59;;;;;;;;;;;;;;;9.03;50.80;99400.72;4342347;32;35236;-70
2022/12/07 03:40:45;;;;;;;;;;;;;;;8.97;51.21;99394.03;4352943;32;33937;-69
2022/12/07 03:43:12;;;;;;;;;;;;;;;9.03;51.01;99400.72;4360698;32;33118;-70
2022/12/07 03:45:44;;;;;;;;;;;;;;;9.02;51.34;99402.56;4359924;32;34034;-69
2022/12/07 03:48:18;;;;;;;;;;;;;;;9.16;51.06;99406.03;4341520;32;34599;-69
2022/12/07 03:50:50;;;;;;;;;;;;;;;9.09;51.25;99408.28;4342710;32;33960;-70
2022/12/07 03:53:22;;;;;;;;;;;;;;;9.10;51.20;99405.50;4357753;32;33419;-70
2022/12/07 03:55:50;;;;;;;;;;;;;;;9.03;51.21;99414.94;4344833;32;34045;-70
2022/12/07 03:58:17;;;;;;;;;;;;;;;9.23;50.63;99420.63;4348846;32;33548;-70
2022/12/07 04:00:45;;;;;;;;;;;;;;;8.85;51.43;99411.78;4357503;32;35105;-71
2022/12/07 04:03:12;;;;;;;;;;;;;;;8.93;51.42;99411.25;4358052;32;32337;-70
2022/12/07 04:05:39;;;;;;;;;;;;;;;9.15;50.64;99409.62;4358664;32;33895;-68
2022/12/07 04:08:06;;;;;;;;;;;;;;;9.18;50.59;99412.06;4345473;32;32988;-69
2022/12/07 04:10:34;;;;;;;;;;;;;;;9.11;50.74;99417.03;4355959;32;35176;-70
2022/12/07 04:13:01;;;;;;;;;;;;;;;9.00;51.13;99414.31;4358776;32;34429;-69
2022/12/07 04:15:28;;;;;;;;;;;;;;;9.08;50.76;99409.25;4356898;32;34322;-68
2022/12/07 04:17:56;;;;;;;;;;;;;;;9.12;50.67;99407.19;4358519;32;34209;-68
2022/12/07 04:20:23;;;;;;;;;;;;;;;9.04;51.54;99407.78;4354848;32;34132;-69
2022/12/07 04:22:51;;;;;;;;;;;;;;;9.06;51.67;99408.53;4358128;32;33661;-68
2022/12/07 04:25:18;;;;;;;;;;;;;;;8.93;52.38;99413.06;4359600;32;32988;-68
2022/12/07 04:27:45;;;;;;;;;;;;;;;8.92;52.54;99408.66;4356228;32;34229;-69
2022/12/07 04:30:12;;;;;;;;;;;;;;;9.15;52.14;99418.53;4353494;32;34175;-69
2022/12/07 04:32:40;;;;;;;;;;;;;;;9.14;52.41;99407.94;4357024;32;33238;-69
2022/12/07 04:35:07;;;;;;;;;;;;;;;9.24;52.38;99411.63;4358467;32;34666;-68
2022/12/07 04:37:35;;;;;;;;;;;;;;;9.35;52.15;99411.69;4356022;32;33423;-69
2022/12/07 04:40:02;;;;;;;;;;;;;;;9.40;52.05;99416.66;4354527;32;34590;-69
2022/12/07 04:42:30;;;;;;;;;;;;;;;9.30;52.54;99413.84;4355730;32;32995;-68
2022/12/07 04:45:16;;;;;;;;;;;;;;;9.24;53.06;99415.13;4359301;32;35181;-67
2022/12/07 04:48:02;;;;;;;;;;;;;;;9.33;52.82;99411.78;4357936;32;34197;-68
2022/12/07 04:50:49;;;;;;;;;;;;;;;9.28;53.19;99413.13;4355789;32;32003;-69
2022/12/07 04:53:35;;;;;;;;;;;;;;;9.25;53.41;99418.69;4355057;32;33208;-69
2022/12/07 04:56:02;;;;;;;;;;;;;;;9.44;52.98;99421.69;4358798;32;34729;-69
2022/12/07 04:58:30;;;;;;;;;;;;;;;9.23;53.69;99424.13;4356843;32;33922;-66
2022/12/07 05:00:57;;;;;;;;;;;;;;;9.40;52.99;99420.19;4356076;32;34476;-67
2022/12/07 05:03:24;;;;;;;;;;;;;;;9.46;52.94;99422.41;4355841;32;32086;-67
2022/12/07 05:05:51;;;;;;;;;;;;;;;9.39;53.00;99425.66;4357791;32;35239;-67
2022/12/07 05:08:19;;;;;;;;;;;;;;;9.44;52.92;99429.69;4357820;32;34102;-67
2022/12/07 05:10:46;;;;;;;;;;;;;;;9.33;52.98;99421.63;4357222;32;32648;-67
2022/12/07 05:13:13;;;;;;;;;;;;;;;9.38;52.67;99430.16;4344770;32;33320;-67
2022/12/07 05:15:42;;;;;;;;;;;;;;;9.29;53.09;99430.84;4358720;32;33711;-67
2022/12/07 05:18:12;;;;;;;;;;;;;;;9.30;53.10;99424.53;4356309;32;34220;-69
2022/12/07 05:20:40;;;;;;;;;;;;;;;9.29;53.10;99414.81;4354028;32;35296;-67
2022/12/07 05:23:09;;;;;;;;;;;;;;;9.22;53.37;99417.09;4350693;32;33890;-67
2022/12/07 05:25:36;;;;;;;;;;;;;;;9.31;53.34;99418.25;4358047;32;35164;-68
2022/12/07 05:28:04;;;;;;;;;;;;;;;9.33;53.55;99413.63;4356990;32;35407;-68
2022/12/07 05:30:31;;;;;;;;;;;;;;;9.33;53.75;99408.28;4354064;32;36136;-68
2022/12/07 05:32:59;;;;;;;;;;;;;;;9.25;53.91;99414.19;4359440;32;33720;-68
2022/12/07 05:35:26;;;;;;;;;;;;;;;9.30;53.87;99406.69;4363700;32;32751;-67
2022/12/07 05:37:53;;;;;;;;;;;;;;;9.21;54.32;99401.16;4359008;32;34384;-69
2022/12/07 05:40:21;;;;;;;;;;;;;;;9.38;54.19;99407.94;4360786;32;32842;-68
2022/12/07 05:42:48;;;;;;;;;;;;;;;9.49;53.87;99400.81;4361863;32;33670;-69
2022/12/07 05:45:15;;;;;;;;;;;;;;;9.51;53.97;99398.87;4362974;32;32797;-69
2022/12/07 05:47:43;;;;;;;;;;;;;;;9.45;54.67;99401.16;4359191;32;34440;-66
2022/12/07 05:50:10;;;;;;;;;;;;;;;9.55;54.17;99400.34;4362807;32;33980;-66
2022/12/07 05:52:37;;;;;;;;;;;;;;;9.27;55.00;99406.06;4362389;32;33316;-66
2022/12/07 05:55:06;;;;;;;;;;;;;;;9.52;54.09;99397.06;4362551;32;32499;-68
2022/12/07 05:57:34;;;;;;;;;;;;;;;9.59;53.94;99411.63;4361775;32;33986;-67
2022/12/07 06:00:01;;;;;;;;;;;;;;;9.59;54.05;99406.31;4359738;32;33952;-66
2022/12/07 06:02:38;;;;;;;;;;;;;;;9.63;53.89;99406.91;4362556;32;34088;-66
2022/12/07 06:05:06;;;;;;;;;;;;;;;9.63;54.26;99413.13;4361505;32;33846;-68
2022/12/07 06:07:33;;;;;;;;;;;;;;;9.55;55.11;99415.53;4358140;32;34049;-68
2022/12/07 06:10:01;;;;;;;;;;;;;;;9.49;55.20;99414.16;4363133;32;34015;-66
2022/12/07 06:12:35;;;;;;;;;;;;;;;9.64;54.99;99412.16;4361644;32;33097;-67
2022/12/07 06:15:22;;;;;;;;;;;;;;;9.53;55.18;99418.31;4361128;32;35072;-66
2022/12/07 06:17:50;;;;;;;;;;;;;;;9.57;55.07;99409.09;4361650;32;34970;-65
2022/12/07 06:20:17;;;;;;;;;;;;;;;9.55;55.03;99413.69;4358893;32;34531;-65
2022/12/07 06:22:44;;;;;;;;;;;;;;;9.54;54.95;99413.84;4352654;32;34491;-66
2022/12/07 06:25:12;;;;;;;;;;;;;;;9.52;54.97;99419.28;4361638;32;34107;-66
2022/12/07 06:27:39;;;;;;;;;;;;;;;9.72;54.44;99416.91;4361571;32;34940;-66
2022/12/07 06:30:08;;;;;;;;;;;;;;;9.83;53.90;99421.44;4357255;32;34147;-67
2022/12/07 06:32:36;;;;;;;;;;;;;;;9.82;53.79;99422.41;4361861;32;32119;-67
2022/12/07 06:35:04;;;;;;;;;;;;;;;9.73;54.57;99423.97;4361846;32;32898;-67
2022/12/07 06:37:31;;;;;;;;;;;;;;;9.82;54.08;99417.91;4362076;32;32840;-66
2022/12/07 06:39:58;;;;;;;;;;;;;;;9.87;53.42;99423.75;4362779;32;33895;-66
2022/12/07 06:42:26;;;;;;;;;;;;;;;9.86;53.16;99423.88;4357148;32;33141;-66
2022/12/07 06:44:53;;;;;;;;;;;;;;;9.78;53.31;99427.97;4346492;32;32389;-66
2022/12/07 06:47:21;;;;;;;;;;;;;;;9.70;53.77;99427.72;4354875;32;35252;-67
2022/12/07 06:50:07;;;;;;;;;;;;;;;9.60;54.85;99424.06;4356526;32;33288;-67
2022/12/07 06:52:35;;;;;;;;;;;;;;;9.75;54.03;99436.22;4361933;32;34447;-66
2022/12/07 06:55:02;;;;;;;;;;;;;;;9.75;53.96;99432.72;4362963;32;34994;-67
2022/12/07 06:57:29;;;;;;;;;;;;;;;9.78;53.56;99438.66;4360996;32;32923;-66
2022/12/07 06:59:56;;;;;;;;;;;;;;;9.78;53.62;99433.31;4360379;32;34206;-67
2022/12/07 07:02:24;;;;;;;;;;;;;;;9.57;54.94;99438.50;4362024;32;33211;-67
2022/12/07 07:04:51;;;;;;;;;;;;;;;9.77;54.21;99433.47;4359094;32;34318;-67
2022/12/07 07:07:18;;;;;;;;;;;;;;;9.86;53.80;99434.59;4348924;32;33870;-68
2022/12/07 07:09:46;;;;;;;;;;;;;;;9.81;54.24;99437.59;4359725;32;34227;-67
2022/12/07 07:12:13;;;;;;;;;;;;;;;9.82;54.41;99436.59;4357141;32;32714;-67
2022/12/07 07:14:40;;;;;;;;;;;;;;;9.91;53.89;99427.88;4357977;32;34062;-68
2022/12/07 07:17:07;;;;;;;;;;;;;;;9.75;54.78;99427.38;4350375;32;34276;-67
2022/12/07 07:19:35;;;;;;;;;;;;;;;9.68;55.22;99431.47;4356429;32;33914;-71
2022/12/07 07:22:02;;;;;;;;;;;;;;;9.73;55.39;99430.16;4361669;32;32053;-66
2022/12/07 07:24:29;;;;;;;;;;;;;;;9.79;55.01;99439.50;4360954;32;34804;-67
2022/12/07 07:26:57;;;;;;;;;;;;;;;9.66;55.45;99438.75;4361848;32;34269;-67
2022/12/07 07:29:24;;;;;;;;;;;;;;;9.84;55.24;99442.69;4358279;32;34266;-67
2022/12/07 07:31:51;;;;;;;;;;;;;;;10.01;54.58;99439.56;4358334;32;33301;-67
2022/12/07 07:34:19;;;;;;;;;;;;;;;10.06;54.47;99441.06;4361601;32;32889;-67
2022/12/07 07:36:46;;;;;;;;;;;;;;;10.12;53.91;99444.09;4362133;32;34896;-66
2022/12/07 07:39:13;;;;;;;;;;;;;;;10.09;53.95;99440.81;4361683;32;35084;-67
2022/12/07 07:41:40;;;;;;;;;;;;;;;9.99;54.26;99443.34;4360307;32;34506;-67
2022/12/07 07:44:11;;;;;;;;;;;;;;;10.04;54.32;99439.34;4353738;32;34184;-68
2022/12/07 07:46:38;;;;;;;;;;;;;;;10.08;54.42;99436.41;4363205;32;35786;-66
2022/12/07 07:49:05;;;;;;;;;;;;;;;10.17;54.00;99444.59;4363165;32;33609;-66
2022/12/07 07:51:33;;;;;;;;;;;;;;;10.16;54.06;99439.38;4362373;32;33193;-67
2022/12/07 07:54:00;;;;;;;;;;;;;;;10.00;54.62;99434.34;4360237;32;34265;-68
2022/12/07 07:56:27;;;;;;;;;;;;;;;10.12;54.72;99435.25;4361125;32;35482;-67
2022/12/07 07:58:55;;;;;;;;;;;;;;;10.19;54.47;99441.81;4354958;32;32633;-66
2022/12/07 08:01:22;;;;;;;;;;;;;;;10.10;54.49;99445.19;4357641;32;33274;-66
2022/12/07 08:03:50;;;;;;;;;;;;;;;10.14;54.57;99450.16;4355651;32;34300;-67
2022/12/07 08:06:17;;;;;;;;;;;;;;;10.24;54.30;99439.59;4359419;32;33869;-66
2022/12/07 08:08:44;;;;;;;;;;;;;;;10.30;54.64;99439.16;4363414;32;34967;-67
2022/12/07 08:11:11;;;;;;;;;;;;;;;10.37;54.54;99444.87;4353900;32;32848;-67
2022/12/07 08:13:39;;;;;;;;;;;;;;;10.35;54.92;99442.34;4359177;32;34188;-65
2022/12/07 08:16:07;;;;;;;;;;;;;;;10.48;54.48;99445.75;4361541;32;34796;-66
2022/12/07 08:18:35;;;;;;;;;;;;;;;10.21;55.04;99442.53;4362066;32;34190;-65
2022/12/07 08:21:03;;;;;;;;;;;;;;;10.19;55.16;99449.81;4361146;32;33457;-65
2022/12/07 08:23:30;;;;;;;;;;;;;;;10.21;55.14;99454.09;4356236;32;34118;-65
2022/12/07 08:26:07;;;;;;;;;;;;;;;10.35;54.77;99454.88;4359061;32;34164;-65
2022/12/07 08:28:34;;;;;;;;;;;;;;;10.35;55.41;99458.38;4358325;32;34100;-65
2022/12/07 08:31:03;;;;;;;;;;;;;;;10.56;55.14;99455.84;4358076;32;34414;-66
2022/12/07 08:33:30;;;;;;;;;;;;;;;10.75;54.87;99455.22;4358812;32;32793;-65
2022/12/07 08:36:04;;;;;;;;;;;;;;;10.92;54.30;99452.06;4360375;32;34256;-66
2022/12/07 08:38:32;;;;;;;;;;;;;;;10.84;54.60;99456.31;4363122;32;33968;-65
2022/12/07 08:40:59;;;;;;;;;;;;;;;10.88;54.43;99453.28;4347065;32;34712;-65
2022/12/07 08:43:26;;;;;;;;;;;;;;;11.06;54.07;99458.97;4359066;32;34826;-65
2022/12/07 08:45:59;;;;;;;;;;;;;;;11.13;53.78;99459.31;4354089;32;35081;-65
2022/12/07 08:48:26;;;;;;;;;;;;;;;11.05;53.94;99453.75;4357609;32;35208;-64
2022/12/07 08:50:53;;;;;;;;;;;;;;;11.17;53.28;99460.75;4353801;32;33818;-66
2022/12/07 08:53:21;;;;;;;;;;;;;;;11.26;52.54;99465.34;4359105;32;35212;-65
2022/12/07 08:55:48;;;;;;;;;;;;;;;11.45;52.22;99461.16;4354987;32;33959;-67
2022/12/07 08:58:15;;;;;;;;;;;;;;;11.53;52.70;99466.75;4360939;32;34872;-70
2022/12/07 09:00:43;;;;;;;;;;;;;;;11.93;52.08;99460.75;4359857;32;34622;-68
2022/12/07 09:03:10;;;;;;;;;;;;;;;12.07;51.54;99460.41;4361144;32;33789;-69
2022/12/07 09:05:37;;;;;;;;;;;;;;;12.07;51.29;99466.66;4357963;32;32852;-67
2022/12/07 09:08:04;;;;;;;;;;;;;;;11.99;51.01;99454.88;4361361;32;33981;-69
2022/12/07 09:10:32;;;;;;;;;;;;;;;11.66;51.74;99464.75;4359538;32;33179;-70
2022/12/07 09:13:02;;;;;;;;;;;;;;;11.83;50.74;99469.53;4328871;32;923129;-75
2022/12/07 09:15:30;;;;;;;;;;;;;;;11.54;51.42;99466.63;4360061;32;34150;-68
2022/12/07 09:17:58;;;;;;;;;;;;;;;11.61;50.98;99454.41;4355961;32;34102;-66
2022/12/07 09:20:25;;;;;;;;;;;;;;;11.28;52.04;99451.84;4360011;32;33113;-65
2022/12/07 09:22:54;;;;;;;;;;;;;;;11.59;51.54;99444.81;4360270;32;35284;-66
2022/12/07 09:25:21;;;;;;;;;;;;;;;11.76;51.46;99446.91;4359676;32;34159;-65
2022/12/07 09:27:54;;;;;;;;;;;;;;;11.96;50.51;99442.56;4359619;32;34149;-63
2022/12/07 09:30:22;;;;;;;;;;;;;;;12.09;50.70;99447.72;4354014;32;32652;-66
2022/12/07 09:32:49;;;;;;;;;;;;;;;12.01;50.98;99445.72;4359493;32;34560;-65
2022/12/07 09:35:16;;;;;;;;;;;;;;;12.06;50.15;99442.63;4356270;32;34264;-65
2022/12/07 09:37:44;;;;;;;;;;;;;;;12.13;49.55;99438.44;4359698;32;34017;-66
2022/12/07 09:40:11;;;;;;;;;;;;;;;12.73;49.10;99431.38;4359323;32;31847;-64
2022/12/07 09:42:39;;;;;;;;;;;;;;;13.30;47.84;99434.38;4360669;32;32967;-64
2022/12/07 09:45:10;;;;;;;;;;;;;;;13.24;47.45;99435.78;4357392;32;34465;-63
2022/12/07 09:47:37;;;;;;;;;;;;;;;12.93;47.63;99434.12;4360373;32;33605;-64
2022/12/07 09:50:05;;;;;;;;;;;;;;;12.76;47.49;99427.56;4358435;32;33653;-65
2022/12/07 09:52:33;;;;;;;;;;;;;;;12.61;48.10;99415.50;4357645;32;35227;-64
2022/12/07 09:55:09;;;;;;;;;;;;;;;12.56;48.43;99426.66;4363411;32;33020;-65
2022/12/07 09:57:37;;;;;;;;;;;;;;;12.55;48.74;99430.31;4347018;32;33886;-63
2022/12/07 10:00:10;;;;;;;;;;;;;;;12.51;48.65;99435.09;4351266;32;32549;-65
2022/12/07 10:02:38;;;;;;;;;;;;;;;12.33;48.75;99428.69;4349196;32;34034;-65
2022/12/07 10:05:06;;;;;;;;;;;;;;;12.02;48.93;99431.31;4358968;32;34641;-65
2022/12/07 10:07:34;;;;;;;;;;;;;;;11.91;49.26;99434.06;4359412;32;33493;-64
2022/12/07 10:10:02;;;;;;;;;;;;;;;11.37;50.79;99427.81;4355897;32;33072;-64
2022/12/07 10:12:30;;;;;;;;;;;;;;;11.34;50.82;99424.56;4359320;32;34130;-65
2022/12/07 10:15:02;;;;;;;;;;;;;;;11.36;49.61;99426.12;4361528;32;35442;-65
2022/12/07 10:17:36;;;;;;;;;;;;;;;11.31;50.88;99420.28;4357442;32;33918;-64
2022/12/07 10:20:22;;;;;;;;;;;;;;;11.37;51.15;99417.09;4363566;32;33460;-65
2022/12/07 10:22:59;;;;;;;;;;;;;;;11.47;51.08;99417.19;4362676;32;33889;-65
2022/12/07 10:25:28;;;;;;;;;;;;;;;10.75;52.89;99412.38;4357912;32;33590;-68
2022/12/07 10:28:02;;;;;;;;;;;;;;;10.82;51.91;99412.75;4356658;32;33727;-66
2022/12/07 10:30:29;;;;;;;;;;;;;;;11.48;51.05;99410.84;4356607;32;33293;-66
2022/12/07 10:32:57;;;;;;;;;;;;;;;11.66;50.72;99405.78;4356507;32;32347;-68
2022/12/07 10:35:28;;;;;;;;;;;;;;;11.88;50.24;99412.88;4359019;32;34947;-68
2022/12/07 10:37:57;;;;;;;;;;;;;;;11.58;51.16;99408.25;4357263;32;34143;-66
2022/12/07 10:40:33;;;;;;;;;;;;;;;11.92;49.93;99413.47;4346419;32;34349;-66
2022/12/07 10:43:05;;;;;;;;;;;;;;;11.88;49.81;99415.56;4351396;32;34116;-66
2022/12/07 10:45:32;;;;;;;;;;;;;;;11.48;49.90;99415.34;4352760;32;33091;-66
2022/12/07 10:48:08;;;;;;;;;;;;;;;11.21;51.94;99414.00;4356996;32;34140;-66
2022/12/07 10:50:38;;;;;;;;;;;;;;;11.57;50.78;99407.41;4357782;32;35834;-66
2022/12/07 10:53:12;;;;;;;;;;;;;;;11.68;50.26;99409.16;4356075;32;34282;-67
2022/12/07 10:55:55;;;;;;;;;;;;;;;11.74;50.08;99408.63;4343911;32;34126;-65
2022/12/07 10:58:41;;;;;;;;;;;;;;;11.80;48.66;99402.75;4356068;32;34210;-65
2022/12/07 11:01:14;;;;;;;;;;;;;;;11.50;50.29;99413.41;4359513;32;33151;-65
2022/12/07 11:03:44;;;;;;;;;;;;;;;11.25;52.03;99404.72;4343422;32;34249;-65
2022/12/07 11:06:17;;;;;;;;;;;;;;;11.71;50.43;99400.00;4358654;32;34133;-67
2022/12/07 11:08:46;;;;;;;;;;;;;;;11.43;51.32;99397.84;4352583;32;33906;-65
2022/12/07 11:11:16;;;;;;;;;;;;;;;11.89;49.00;99390.44;4343316;32;32575;-65
2022/12/07 11:13:46;;;;;;;;;;;;;;;11.62;49.33;99393.59;4356362;32;34792;-68
2022/12/07 11:16:13;;;;;;;;;;;;;;;11.99;47.14;99388.66;4358027;32;33888;-65
2022/12/07 11:18:53;;;;;;;;;;;;;;;11.95;48.06;99383.69;4361669;32;34034;-68
2022/12/07 11:21:22;;;;;;;;;;;;;;;12.28;48.55;99388.81;4359655;32;32849;-66
2022/12/07 11:24:04;;;;;;;;;;;;;;;12.58;47.33;99382.59;4347319;32;34163;-66
2022/12/07 11:26:50;;;;;;;;;;;;;;;12.95;46.58;99384.66;4345081;32;35096;-67
2022/12/07 11:29:20;;;;;;;;;;;;;;;12.61;47.02;99385.97;4354204;32;32897;-66
2022/12/07 11:32:06;;;;;;;;;;;;;;;12.51;46.90;99384.09;4359884;32;32847;-66
2022/12/07 11:34:37;;;;;;;;;;;;;;;12.79;45.92;99387.84;4358263;32;32247;-67
2022/12/07 11:37:06;;;;;;;;;;;;;;;12.89;46.98;99381.66;4344880;32;33256;-66
2022/12/07 11:39:39;;;;;;;;;;;;;;;13.03;45.70;99378.56;4359761;32;33101;-66
2022/12/07 11:42:09;;;;;;;;;;;;;;;13.30;45.11;99382.47;4347340;32;32063;-70
2022/12/07 11:44:40;;;;;;;;;;;;;;;12.75;47.04;99380.22;4354444;32;33822;-67
2022/12/07 11:47:08;;;;;;;;;;;;;;;12.77;45.64;99383.59;4357965;32;33592;-70
2022/12/07 11:49:39;;;;;;;;;;;;;;;12.45;46.55;99378.41;4343963;32;33729;-67
2022/12/07 11:52:09;;;;;;;;;;;;;;;12.44;46.07;99388.31;4353731;32;32700;-67
2022/12/07 11:54:38;;;;;;;;;;;;;;;12.65;46.37;99385.56;4347114;32;33421;-67
2022/12/07 11:57:08;;;;;;;;;;;;;;;12.75;45.19;99386.44;4344160;32;35797;-66
2022/12/07 11:59:43;;;;;;;;;;;;;;;13.09;44.21;99379.84;4356536;32;35303;-66
2022/12/07 12:02:37;;;;;;;;;;;;;;;12.71;44.39;99384.16;4346437;32;33998;-66
2022/12/07 12:05:13;;;;;;;;;;;;;;;12.87;44.03;99372.88;4355122;32;34290;-66
2022/12/07 12:07:40;;;;;;;;;;;;;;;13.16;43.48;99370.25;4354280;32;34456;-66
2022/12/07 12:10:32;;;;;;;;;;;;;;;13.16;43.20;99360.37;4358492;32;33685;-66
2022/12/07 12:13:03;;;;;;;;;;;;;;;13.14;44.05;99354.28;4342268;32;33295;-65
2022/12/07 12:15:53;;;;;;;;;;;;;;;13.36;43.21;99347.81;4351163;32;33712;-66
2022/12/07 12:18:39;;;;;;;;;;;;;;;13.14;43.25;99343.53;4359020;32;33426;-65
2022/12/07 12:21:08;;;;;;;;;;;;;;;13.04;42.68;99342.66;4360659;32;34611;-65
2022/12/07 12:23:35;;;;;;;;;;;;;;;12.75;43.78;99343.47;4345361;32;33473;-66
2022/12/07 12:26:04;;;;;;;;;;;;;;;12.59;44.68;99344.00;4362219;32;32842;-66
2022/12/07 12:28:31;;;;;;;;;;;;;;;12.79;44.28;99338.69;4349254;32;34009;-66
2022/12/07 12:31:17;;;;;;;;;;;;;;;12.76;44.10;99334.44;4359068;32;34176;-65
2022/12/07 12:33:49;;;;;;;;;;;;;;;12.72;43.53;99334.84;4362047;32;34203;-66
2022/12/07 12:36:17;;;;;;;;;;;;;;;12.72;43.31;99333.00;4349028;32;35065;-66
2022/12/07 12:38:50;;;;;;;;;;;;;;;12.63;43.16;99320.41;4356340;32;34270;-66
2022/12/07 12:41:36;;;;;;;;;;;;;;;12.38;43.72;99323.59;4360590;32;33762;-66
2022/12/07 12:44:23;;;;;;;;;;;;;;;12.19;45.31;99324.38;4358479;32;33336;-66
2022/12/07 12:46:54;;;;;;;;;;;;;;;12.49;44.07;99320.81;4360627;32;34196;-66
2022/12/07 12:49:21;;;;;;;;;;;;;;;12.75;43.93;99316.63;4360078;32;34520;-65
2022/12/07 12:51:48;;;;;;;;;;;;;;;12.69;44.56;99317.19;4358773;32;33887;-67
2022/12/07 12:54:29;;;;;;;;;;;;;;;11.99;45.20;99313.56;4359267;32;32426;-66
2022/12/07 12:57:00;;;;;;;;;;;;;;;12.13;45.34;99323.06;4359240;32;33701;-66
2022/12/07 12:59:31;;;;;;;;;;;;;;;12.02;45.38;99326.69;4345537;32;32841;-66
2022/12/07 13:02:01;;;;;;;;;;;;;;;11.60;46.74;99333.91;4358308;32;32163;-65
2022/12/07 13:04:31;;;;;;;;;;;;;;;11.97;45.21;99328.91;4357780;32;32096;-66
2022/12/07 13:06:58;;;;;;;;;;;;;;;11.67;44.87;99335.09;4340496;32;34024;-66
2022/12/07 13:09:27;;;;;;;;;;;;;;;11.40;44.63;99332.94;4352740;32;35275;-66
2022/12/07 13:12:05;;;;;;;;;;;;;;;12.14;43.88;99330.16;4358269;32;33389;-66